Time;durP1;ratioP1;P1;durP2;ratioP2;P2;SDS_P1;SDS_P2;PMS_P1;PMS_P2;Temp;Humidity;BMP_temperature;BMP_pressure;BME280_temperature;BME280_humidity;BME280_pressure;Samples;Min_cycle;Max_cycle;Signal;HPM_P1;HPM_P2
2023/04/26 00:02:28;;;;;;;7.78;3.08;;;;;;;;;;5008167;28;20044;-81
2023/04/26 00:04:57;;;;;;;4.38;3.35;;;;;;;;;;5020414;28;20119;-82
2023/04/26 00:07:25;;;;;;;6.13;3.85;;;;;;;;;;5022269;28;20101;-81
2023/04/26 00:09:52;;;;;;;6.13;4.55;;;;;;;;;;5015164;28;20500;-82
2023/04/26 00:12:20;;;;;;;6.93;4.95;;;;;;;;;;5012895;28;20057;-81
2023/04/26 00:14:48;;;;;;;6.10;4.13;;;;;;;;;;5028950;28;20137;-82
2023/04/26 00:17:16;;;;;;;4.80;4.30;;;;;;;;;;5016639;28;20145;-82
2023/04/26 00:19:44;;;;;;;5.55;3.30;;;;;;;;;;5008904;28;20212;-81
2023/04/26 00:22:11;;;;;;;4.63;3.30;;;;;;;;;;5005333;28;20050;-83
2023/04/26 00:24:39;;;;;;;3.40;2.65;;;;;;;;;;5006456;28;20408;-81
2023/04/26 00:27:09;;;;;;;4.03;2.75;;;;;;;;;;5007864;28;20054;-81
2023/04/26 00:29:36;;;;;;;3.75;3.20;;;;;;;;;;5011824;28;20156;-82
2023/04/26 00:32:04;;;;;;;3.20;3.00;;;;;;;;;;5004714;28;20049;-82
2023/04/26 00:34:35;;;;;;;3.58;3.15;;;;;;;;;;5006705;28;20049;-82
2023/04/26 00:37:04;;;;;;;4.35;3.60;;;;;;;;;;5006822;28;20049;-82
2023/04/26 00:39:31;;;;;;;4.68;2.88;;;;;;;;;;5000463;28;20108;-82
2023/04/26 00:41:58;;;;;;;2.65;2.45;;;;;;;;;;5007723;28;20053;-81
2023/04/26 00:44:26;;;;;;;2.88;2.58;;;;;;;;;;5002258;28;20099;-82
2023/04/26 00:46:54;;;;;;;3.65;2.40;;;;;;;;;;5004798;28;20131;-81
2023/04/26 00:49:24;;;;;;;3.38;3.10;;;;;;;;;;5004018;28;20563;-82
2023/04/26 00:51:52;;;;;;;3.33;2.80;;;;;;;;;;5003602;28;20049;-81
2023/04/26 00:54:20;;;;;;;2.90;2.70;;;;;;;;;;5026757;28;20314;-82
2023/04/26 00:56:50;;;;;;;3.42;2.92;;;;;;;;;;5011244;28;20057;-81
2023/04/26 00:59:21;;;;;;;3.90;3.28;;;;;;;;;;5006635;28;20058;-83
2023/04/26 01:01:48;;;;;;;3.20;3.00;;;;;;;;;;5006769;28;20096;-82
2023/04/26 01:04:16;;;;;;;2.88;2.67;;;;;;;;;;5004665;28;20152;-82
2023/04/26 01:06:44;;;;;;;6.07;4.55;;;;;;;;;;5019231;28;20050;-82
2023/04/26 01:09:14;;;;;;;5.30;4.80;;;;;;;;;;5004788;28;20058;-82
2023/04/26 01:11:43;;;;;;;5.93;4.20;;;;;;;;;;5006237;28;20100;-82
2023/04/26 01:14:11;;;;;;;4.85;4.10;;;;;;;;;;5005169;28;20049;-82
2023/04/26 01:16:39;;;;;;;4.60;4.20;;;;;;;;;;5002982;28;20048;-82
2023/04/26 01:19:14;;;;;;;5.65;3.60;;;;;;;;;;5003437;28;20042;-82
2023/04/26 01:21:42;;;;;;;4.65;4.25;;;;;;;;;;5004827;28;20053;-82
2023/04/26 01:24:10;;;;;;;5.55;5.05;;;;;;;;;;5003025;28;20046;-82
2023/04/26 01:26:47;;;;;;;6.25;5.20;;;;;;;;;;5006286;28;20138;-83
2023/04/26 01:29:15;;;;;;;5.30;4.90;;;;;;;;;;5004232;28;20080;-82
2023/04/26 01:31:43;;;;;;;5.05;4.63;;;;;;;;;;5009805;28;20061;-82
2023/04/26 01:34:10;;;;;;;5.65;4.95;;;;;;;;;;5042567;28;20026;-81
2023/04/26 01:36:38;;;;;;;7.15;6.20;;;;;;;;;;5011069;28;20460;-82
2023/04/26 01:39:07;;;;;;;5.32;4.63;;;;;;;;;;5008924;28;20058;-82
2023/04/26 01:41:35;;;;;;;5.45;3.90;;;;;;;;;;5009429;28;20042;-81
2023/04/26 01:44:03;;;;;;;5.40;3.97;;;;;;;;;;5007796;28;20056;-81
2023/04/26 01:46:49;;;;;;;3.80;3.50;;;;;;;;;;5005968;28;20140;-81
2023/04/26 01:49:16;;;;;;;3.80;3.42;;;;;;;;;;4988476;28;20038;-82
2023/04/26 01:51:44;;;;;;;4.13;3.50;;;;;;;;;;5020157;28;20046;-82
2023/04/26 01:54:11;;;;;;;3.92;3.63;;;;;;;;;;5024898;28;20030;-82
2023/04/26 01:56:39;;;;;;;4.30;3.90;;;;;;;;;;5025225;28;20045;-82
2023/04/26 01:59:06;;;;;;;6.18;4.75;;;;;;;;;;5009317;28;20049;-82
2023/04/26 02:01:33;;;;;;;5.47;4.78;;;;;;;;;;5009698;28;20125;-82
2023/04/26 02:04:02;;;;;;;4.45;4.00;;;;;;;;;;5010053;28;20068;-82
2023/04/26 02:06:30;;;;;;;4.90;4.32;;;;;;;;;;5009902;28;20512;-82
2023/04/26 02:08:58;;;;;;;4.10;3.70;;;;;;;;;;5007519;28;20054;-82
2023/04/26 02:11:26;;;;;;;4.35;4.00;;;;;;;;;;5019871;28;20038;-83
2023/04/26 02:13:53;;;;;;;5.95;3.33;;;;;;;;;;5028176;28;20037;-82
2023/04/26 02:16:21;;;;;;;4.28;3.85;;;;;;;;;;5017669;28;20238;-82
2023/04/26 02:18:48;;;;;;;4.28;3.88;;;;;;;;;;5010026;28;20128;-82
2023/04/26 02:21:17;;;;;;;3.95;3.63;;;;;;;;;;5008974;28;20068;-83
2023/04/26 02:23:45;;;;;;;5.53;5.03;;;;;;;;;;5011428;28;20400;-82
2023/04/26 02:26:12;;;;;;;5.50;4.57;;;;;;;;;;5010732;28;20052;-83
2023/04/26 02:28:43;;;;;;;4.32;3.92;;;;;;;;;;5009485;28;20084;-82
2023/04/26 02:31:10;;;;;;;4.85;4.45;;;;;;;;;;5009747;28;20073;-82
2023/04/26 02:33:38;;;;;;;3.72;3.42;;;;;;;;;;5004067;28;20645;-82
2023/04/26 02:36:06;;;;;;;6.53;4.35;;;;;;;;;;5003403;28;20061;-82
2023/04/26 02:38:35;;;;;;;5.50;4.93;;;;;;;;;;5021663;28;20190;-82
2023/04/26 02:41:04;;;;;;;4.63;3.95;;;;;;;;;;5027588;23;20045;-84
2023/04/26 02:43:32;;;;;;;5.55;4.22;;;;;;;;;;5035486;28;20044;-84
2023/04/26 02:46:00;;;;;;;4.22;3.85;;;;;;;;;;5020746;28;20570;-85
2023/04/26 02:48:27;;;;;;;4.97;4.57;;;;;;;;;;5026842;28;20461;-84
2023/04/26 02:50:55;;;;;;;5.13;4.15;;;;;;;;;;5038638;28;20056;-85
2023/04/26 02:53:23;;;;;;;5.32;4.60;;;;;;;;;;5012237;28;20824;-83
2023/04/26 02:55:50;;;;;;;35.95;12.48;;;;;;;;;;5038298;28;20178;-85
2023/04/26 02:58:18;;;;;;;5.80;5.15;;;;;;;;;;5016943;28;20050;-84
2023/04/26 03:00:47;;;;;;;4.57;4.18;;;;;;;;;;5043857;28;20116;-85
2023/04/26 03:03:15;;;;;;;8.35;4.60;;;;;;;;;;5034277;28;20136;-85
2023/04/26 03:05:45;;;;;;;5.78;4.57;;;;;;;;;;5020813;28;20102;-84
2023/04/26 03:08:12;;;;;;;10.80;4.05;;;;;;;;;;5012401;28;20057;-84
2023/04/26 03:10:39;;;;;;;4.40;3.97;;;;;;;;;;5034779;28;20128;-84
2023/04/26 03:13:07;;;;;;;6.55;4.30;;;;;;;;;;5030918;28;20045;-84
2023/04/26 03:15:35;;;;;;;8.63;3.97;;;;;;;;;;5034259;28;20049;-84
2023/04/26 03:18:02;;;;;;;6.22;4.10;;;;;;;;;;5034281;28;20099;-85
2023/04/26 03:20:30;;;;;;;5.57;4.40;;;;;;;;;;5033684;28;20192;-85
2023/04/26 03:22:58;;;;;;;6.65;4.90;;;;;;;;;;5016408;28;20045;-84
2023/04/26 03:25:26;;;;;;;7.95;6.28;;;;;;;;;;5023694;28;20050;-85
2023/04/26 03:27:54;;;;;;;7.18;5.70;;;;;;;;;;5011358;28;20049;-84
2023/04/26 03:30:21;;;;;;;6.90;5.40;;;;;;;;;;5012740;28;20842;-84
2023/04/26 03:32:49;;;;;;;5.05;4.07;;;;;;;;;;5010800;28;20488;-84
2023/04/26 03:35:16;;;;;;;5.57;4.40;;;;;;;;;;5029756;28;20056;-85
2023/04/26 03:37:44;;;;;;;6.70;5.28;;;;;;;;;;5029418;28;20045;-85
2023/04/26 03:40:13;;;;;;;6.45;4.28;;;;;;;;;;5010310;28;20508;-84
2023/04/26 03:42:40;;;;;;;7.45;5.63;;;;;;;;;;5032272;28;20522;-84
2023/04/26 03:45:08;;;;;;;4.72;4.18;;;;;;;;;;5034381;28;20045;-85
2023/04/26 03:47:35;;;;;;;11.40;8.05;;;;;;;;;;5019037;28;20051;-84
2023/04/26 03:50:02;;;;;;;7.28;6.25;;;;;;;;;;5033004;28;20065;-84
2023/04/26 03:52:30;;;;;;;7.60;5.72;;;;;;;;;;5035993;28;20049;-84
2023/04/26 03:54:57;;;;;;;7.05;5.07;;;;;;;;;;5029487;28;20084;-83
2023/04/26 03:57:25;;;;;;;6.57;4.03;;;;;;;;;;5026155;28;20048;-87
2023/04/26 03:59:52;;;;;;;4.40;4.03;;;;;;;;;;5015363;28;20368;-83
2023/04/26 04:02:20;;;;;;;6.30;5.00;;;;;;;;;;5010948;28;20069;-84
2023/04/26 04:04:48;;;;;;;4.15;3.78;;;;;;;;;;5034256;28;20091;-84
2023/04/26 04:07:16;;;;;;;6.13;4.68;;;;;;;;;;5015251;28;20386;-83
2023/04/26 04:09:43;;;;;;;8.63;4.72;;;;;;;;;;5036671;28;20049;-85
2023/04/26 04:12:10;;;;;;;6.55;4.95;;;;;;;;;;5012569;28;20171;-87
2023/04/26 04:14:39;;;;;;;6.70;5.38;;;;;;;;;;5016157;28;20045;-85
2023/04/26 04:17:07;;;;;;;13.70;11.73;;;;;;;;;;5009457;28;20060;-84
2023/04/26 04:19:34;;;;;;;7.40;5.05;;;;;;;;;;5008649;28;20129;-84
2023/04/26 04:22:02;;;;;;;10.20;5.32;;;;;;;;;;5005656;28;20045;-84
2023/04/26 04:24:29;;;;;;;6.97;4.90;;;;;;;;;;5024461;28;20046;-85
2023/04/26 04:27:00;;;;;;;5.55;4.90;;;;;;;;;;5000706;28;20129;-84
2023/04/26 04:29:27;;;;;;;9.50;5.45;;;;;;;;;;5015040;28;20419;-85
2023/04/26 04:31:55;;;;;;;5.20;4.55;;;;;;;;;;5004076;28;20135;-84
2023/04/26 04:34:25;;;;;;;6.18;5.25;;;;;;;;;;5010127;28;20412;-85
2023/04/26 04:36:53;;;;;;;10.18;6.50;;;;;;;;;;5018449;28;20048;-85
2023/04/26 04:39:20;;;;;;;5.82;5.22;;;;;;;;;;5001485;28;20125;-85
2023/04/26 04:41:48;;;;;;;6.35;5.28;;;;;;;;;;5009545;28;20426;-85
2023/04/26 04:44:17;;;;;;;5.38;4.53;;;;;;;;;;5012341;28;20057;-85
2023/04/26 04:46:45;;;;;;;7.53;5.55;;;;;;;;;;5023885;28;20128;-85
2023/04/26 04:49:13;;;;;;;6.55;5.95;;;;;;;;;;5007518;28;20041;-86
2023/04/26 04:51:41;;;;;;;5.55;4.60;;;;;;;;;;5008250;28;20054;-85
2023/04/26 04:54:13;;;;;;;6.35;5.57;;;;;;;;;;5020704;28;20045;-84
2023/04/26 04:56:41;;;;;;;7.35;5.72;;;;;;;;;;5016068;28;20065;-85
2023/04/26 04:59:10;;;;;;;11.32;6.10;;;;;;;;;;5013526;28;20041;-85
2023/04/26 05:01:37;;;;;;;6.47;5.38;;;;;;;;;;5023765;28;20037;-85
2023/04/26 05:04:09;;;;;;;9.18;5.55;;;;;;;;;;5007119;28;20119;-85
2023/04/26 05:06:37;;;;;;;7.05;5.57;;;;;;;;;;5026425;28;20053;-86
2023/04/26 05:09:05;;;;;;;7.55;5.85;;;;;;;;;;5010672;28;20053;-85
2023/04/26 05:11:32;;;;;;;8.98;5.75;;;;;;;;;;5018362;28;20041;-84
2023/04/26 05:14:01;;;;;;;8.40;6.05;;;;;;;;;;5023211;28;20046;-84
2023/04/26 05:16:29;;;;;;;6.70;6.00;;;;;;;;;;5011216;28;20045;-86
2023/04/26 05:18:59;;;;;;;7.82;6.10;;;;;;;;;;5025517;28;20053;-86
2023/04/26 05:21:26;;;;;;;7.68;5.88;;;;;;;;;;5015083;28;20057;-85
2023/04/26 05:23:56;;;;;;;11.32;5.25;;;;;;;;;;5020029;28;20050;-84
2023/04/26 05:26:23;;;;;;;6.63;5.20;;;;;;;;;;5012777;28;20512;-85
2023/04/26 05:28:58;;;;;;;6.32;4.93;;;;;;;;;;5010179;28;20103;-86
2023/04/26 05:31:52;;;;;;;6.40;5.80;;;;;;;;;;5004175;28;20049;-84
2023/04/26 05:34:52;;;;;;;5.20;4.70;;;;;;;;;;4998778;28;20060;-83
2023/04/26 05:37:23;;;;;;;8.95;4.43;;;;;;;;;;5022513;28;20045;-84
2023/04/26 05:39:50;;;;;;;8.77;4.45;;;;;;;;;;5027961;28;20745;-84
2023/04/26 05:42:18;;;;;;;9.65;4.75;;;;;;;;;;5017379;28;20061;-85
2023/04/26 05:44:45;;;;;;;5.40;4.47;;;;;;;;;;5026930;28;20053;-85
2023/04/26 05:47:16;;;;;;;6.70;5.03;;;;;;;;;;5025380;28;20585;-85
2023/04/26 05:49:43;;;;;;;11.93;5.10;;;;;;;;;;5039661;28;20274;-84
2023/04/26 05:52:11;;;;;;;10.73;4.65;;;;;;;;;;5026857;28;20100;-83
2023/04/26 05:54:39;;;;;;;8.90;5.22;;;;;;;;;;5042160;28;20100;-85
2023/04/26 05:57:07;;;;;;;9.32;4.68;;;;;;;;;;5050880;28;20029;-83
2023/04/26 05:59:37;;;;;;;6.80;5.13;;;;;;;;;;5050334;28;20041;-83
2023/04/26 06:02:05;;;;;;;5.65;4.90;;;;;;;;;;5050671;28;20059;-82
2023/04/26 06:04:35;;;;;;;5.38;4.88;;;;;;;;;;5019135;28;20045;-86
2023/04/26 06:07:07;;;;;;;8.32;5.55;;;;;;;;;;5035743;28;20561;-84
2023/04/26 06:09:34;;;;;;;7.38;4.97;;;;;;;;;;5028934;28;20060;-85
2023/04/26 06:12:03;;;;;;;5.85;4.97;;;;;;;;;;5009828;28;20657;-84
2023/04/26 06:14:37;;;;;;;9.30;5.13;;;;;;;;;;5022957;28;20148;-84
2023/04/26 06:17:10;;;;;;;5.82;4.82;;;;;;;;;;5020099;28;20070;-85
2023/04/26 06:19:37;;;;;;;6.38;4.60;;;;;;;;;;5006061;28;20067;-85
2023/04/26 06:22:05;;;;;;;11.30;4.93;;;;;;;;;;5021507;28;20046;-85
2023/04/26 06:24:33;;;;;;;6.05;4.40;;;;;;;;;;5015430;28;20066;-85
2023/04/26 06:27:00;;;;;;;6.00;4.75;;;;;;;;;;5004305;28;20056;-85
2023/04/26 06:29:31;;;;;;;6.90;5.38;;;;;;;;;;5012020;28;21283;-85
2023/04/26 06:31:59;;;;;;;8.23;4.63;;;;;;;;;;5028003;28;20059;-84
2023/04/26 06:34:26;;;;;;;5.70;4.47;;;;;;;;;;5011503;28;20041;-84
2023/04/26 06:36:54;;;;;;;10.20;5.25;;;;;;;;;;5026301;28;20112;-85
2023/04/26 06:39:24;;;;;;;10.63;5.40;;;;;;;;;;5002776;28;20042;-85
2023/04/26 06:41:52;;;;;;;7.35;4.85;;;;;;;;;;5010747;28;20124;-85
2023/04/26 06:44:30;;;;;;;6.10;4.53;;;;;;;;;;5012497;28;20048;-84
2023/04/26 06:47:02;;;;;;;6.65;4.10;;;;;;;;;;5026407;28;20042;-85
2023/04/26 06:49:31;;;;;;;9.25;4.80;;;;;;;;;;5024090;28;20049;-84
2023/04/26 06:51:58;;;;;;;8.18;5.10;;;;;;;;;;5020563;28;20065;-86
2023/04/26 06:54:30;;;;;;;7.28;5.53;;;;;;;;;;5009096;28;20045;-85
2023/04/26 06:56:57;;;;;;;5.22;4.53;;;;;;;;;;5021232;28;20508;-86
2023/04/26 06:59:27;;;;;;;10.57;4.65;;;;;;;;;;5021730;28;20041;-85
2023/04/26 07:01:55;;;;;;;7.05;4.75;;;;;;;;;;5019530;28;20057;-85
2023/04/26 07:04:22;;;;;;;9.60;4.60;;;;;;;;;;5019833;28;20069;-86
2023/04/26 07:06:50;;;;;;;4.20;3.80;;;;;;;;;;5018887;28;20076;-86
2023/04/26 07:09:17;;;;;;;5.97;4.20;;;;;;;;;;5025552;28;20053;-85
2023/04/26 07:11:47;;;;;;;137.77;57.58;;;;;;;;;;5021007;28;20056;-86
2023/04/26 07:14:16;;;;;;;8.45;3.90;;;;;;;;;;5025051;28;20050;-85
2023/04/26 07:16:43;;;;;;;6.68;4.18;;;;;;;;;;5002753;28;20400;-85
2023/04/26 07:19:11;;;;;;;33.95;29.00;;;;;;;;;;5020983;28;20144;-87
2023/04/26 07:21:38;;;;;;;5.35;3.28;;;;;;;;;;5026133;28;20048;-85
2023/04/26 07:24:07;;;;;;;3.55;3.00;;;;;;;;;;5019226;28;20050;-86
2023/04/26 07:26:35;;;;;;;3.60;3.03;;;;;;;;;;5024812;28;20523;-87
2023/04/26 07:29:03;;;;;;;12.65;9.60;;;;;;;;;;5021000;28;20129;-87
2023/04/26 07:31:31;;;;;;;4.40;3.47;;;;;;;;;;5025346;28;20164;-86
2023/04/26 07:33:58;;;;;;;4.22;3.45;;;;;;;;;;5024192;28;20065;-86
2023/04/26 07:36:27;;;;;;;11.05;3.10;;;;;;;;;;5022346;28;20099;-85
2023/04/26 07:38:54;;;;;;;4.43;3.45;;;;;;;;;;5027799;28;20634;-86
2023/04/26 07:41:22;;;;;;;6.60;3.45;;;;;;;;;;5009897;28;20076;-87
2023/04/26 07:43:49;;;;;;;5.30;3.30;;;;;;;;;;5004617;28;20045;-86
2023/04/26 07:46:17;;;;;;;5.72;4.13;;;;;;;;;;5012302;28;20049;-84
2023/04/26 07:48:45;;;;;;;5.65;3.28;;;;;;;;;;5008028;28;20053;-85
2023/04/26 07:51:15;;;;;;;4.18;2.72;;;;;;;;;;5021291;28;20041;-85
2023/04/26 07:53:42;;;;;;;8.02;4.90;;;;;;;;;;5024932;28;20046;-84
2023/04/26 07:56:10;;;;;;;6.13;3.00;;;;;;;;;;5024864;28;20051;-85
2023/04/26 07:58:38;;;;;;;2.40;2.20;;;;;;;;;;5010414;28;20048;-84
2023/04/26 08:01:06;;;;;;;9.70;5.38;;;;;;;;;;5027342;28;20049;-85
2023/04/26 08:03:33;;;;;;;30.33;21.83;;;;;;;;;;5027721;28;20048;-88
2023/04/26 08:06:01;;;;;;;5.40;2.78;;;;;;;;;;5022674;28;20053;-86
2023/04/26 08:08:29;;;;;;;3.92;2.17;;;;;;;;;;5021222;28;20049;-86
2023/04/26 08:10:56;;;;;;;1.88;1.70;;;;;;;;;;5023882;28;20044;-86
2023/04/26 08:13:23;;;;;;;6.63;2.53;;;;;;;;;;5019971;28;20046;-85
2023/04/26 08:15:54;;;;;;;2.97;2.35;;;;;;;;;;5011330;28;20075;-85
2023/04/26 08:18:22;;;;;;;32.47;29.67;;;;;;;;;;5030140;28;20056;-85
2023/04/26 08:20:49;;;;;;;49.00;45.60;;;;;;;;;;5030454;28;20045;-85
2023/04/26 08:23:18;;;;;;;51.70;46.67;;;;;;;;;;5029719;28;20099;-86
2023/04/26 08:25:45;;;;;;;4.13;2.15;;;;;;;;;;5029403;28;20414;-85
2023/04/26 08:28:14;;;;;;;4.97;2.50;;;;;;;;;;5028942;28;20566;-86
2023/04/26 08:30:42;;;;;;;3.85;2.30;;;;;;;;;;5029892;28;20144;-85
2023/04/26 08:33:09;;;;;;;12.30;11.13;;;;;;;;;;5030871;28;20052;-85
2023/04/26 08:35:37;;;;;;;6.00;2.50;;;;;;;;;;5030929;28;20045;-86
2023/04/26 08:38:04;;;;;;;3.30;2.50;;;;;;;;;;5031035;28;20045;-85
2023/04/26 08:40:32;;;;;;;10.98;6.53;;;;;;;;;;5028195;28;20121;-86
2023/04/26 08:43:00;;;;;;;11.45;10.07;;;;;;;;;;5030077;28;20037;-85
2023/04/26 08:45:27;;;;;;;4.00;2.03;;;;;;;;;;5030214;28;20076;-86
2023/04/26 08:48:16;;;;;;;172.05;154.85;;;;;;;;;;5029827;28;20060;-85
2023/04/26 08:50:48;;;;;;;8.40;2.35;;;;;;;;;;5030499;28;20050;-86
2023/04/26 08:53:16;;;;;;;3.90;3.28;;;;;;;;;;5031776;28;20112;-85
2023/04/26 08:55:48;;;;;;;21.25;19.00;;;;;;;;;;5030785;28;20387;-84
2023/04/26 08:58:16;;;;;;;5.40;2.22;;;;;;;;;;5029570;28;20053;-86
2023/04/26 09:00:44;;;;;;;69.95;29.33;;;;;;;;;;5028306;28;20070;-86
2023/04/26 09:03:12;;;;;;;16.77;15.50;;;;;;;;;;5029503;28;20053;-85
2023/04/26 09:05:44;;;;;;;7.47;5.15;;;;;;;;;;5030348;28;20076;-87
2023/04/26 09:08:17;;;;;;;3.63;2.42;;;;;;;;;;5030222;28;20049;-85
2023/04/26 09:10:45;;;;;;;3.05;1.92;;;;;;;;;;5042061;28;20042;-86
2023/04/26 09:13:13;;;;;;;97.13;88.75;;;;;;;;;;5039219;28;20079;-84
2023/04/26 09:15:40;;;;;;;77.20;70.90;;;;;;;;;;5048750;28;20051;-85
2023/04/26 09:18:21;;;;;;;11.70;10.57;;;;;;;;;;5052569;28;20029;-85
2023/04/26 09:21:01;;;;;;;24.63;22.10;;;;;;;;;;5053104;28;20041;-85
2023/04/26 09:23:29;;;;;;;4.30;2.90;;;;;;;;;;5045117;28;20037;-85
2023/04/26 09:25:56;;;;;;;3.08;2.00;;;;;;;;;;5046486;28;20060;-85
2023/04/26 09:28:25;;;;;;;74.47;68.10;;;;;;;;;;5026324;28;20452;-86
2023/04/26 09:30:52;;;;;;;5.70;1.80;;;;;;;;;;5009901;28;20045;-85
2023/04/26 09:33:20;;;;;;;3.35;2.75;;;;;;;;;;5028338;28;20046;-87
2023/04/26 09:35:47;;;;;;;2.35;2.03;;;;;;;;;;5018793;28;20057;-85
2023/04/26 09:38:18;;;;;;;2.17;1.70;;;;;;;;;;5019280;28;20046;-86
2023/04/26 09:40:46;;;;;;;21.23;19.25;;;;;;;;;;5028122;28;20045;-85
2023/04/26 09:43:17;;;;;;;33.38;30.45;;;;;;;;;;5027218;28;20045;-85
2023/04/26 09:45:51;;;;;;;7.47;5.88;;;;;;;;;;5028066;28;20129;-86
2023/04/26 09:48:20;;;;;;;5.43;4.75;;;;;;;;;;5028145;28;20053;-86
2023/04/26 09:50:48;;;;;;;5.55;2.17;;;;;;;;;;5029976;28;20624;-86
2023/04/26 09:53:27;;;;;;;64.03;58.53;;;;;;;;;;5030079;28;20067;-86
2023/04/26 09:55:55;;;;;;;2.72;2.53;;;;;;;;;;5033096;28;20482;-87
2023/04/26 09:58:22;;;;;;;9.35;8.55;;;;;;;;;;5032315;28;20037;-86
2023/04/26 10:00:51;;;;;;;3.33;1.77;;;;;;;;;;5033132;28;20052;-86
2023/04/26 10:03:19;;;;;;;5.88;1.90;;;;;;;;;;5031138;28;20072;-85
2023/04/26 10:05:47;;;;;;;91.70;83.45;;;;;;;;;;5033585;28;20072;-86
2023/04/26 10:08:15;;;;;;;7.80;6.95;;;;;;;;;;5029835;28;20090;-85
2023/04/26 10:10:44;;;;;;;35.38;32.03;;;;;;;;;;5023800;28;20499;-85
2023/04/26 10:13:12;;;;;;;19.73;17.77;;;;;;;;;;5029480;28;20161;-86
2023/04/26 10:15:40;;;;;;;4.07;2.05;;;;;;;;;;5029165;28;20038;-85
2023/04/26 10:18:07;;;;;;;54.05;48.17;;;;;;;;;;5025825;28;20530;-85
2023/04/26 10:20:39;;;;;;;9.30;7.35;;;;;;;;;;4994832;28;20132;-86
2023/04/26 10:23:11;;;;;;;23.95;21.80;;;;;;;;;;5025445;28;20052;-85
2023/04/26 10:25:42;;;;;;;3.05;2.42;;;;;;;;;;5030682;28;20049;-85
2023/04/26 10:28:10;;;;;;;2.65;1.95;;;;;;;;;;5021290;28;20702;-84
2023/04/26 10:30:56;;;;;;;13.90;12.63;;;;;;;;;;5027431;28;20099;-85
2023/04/26 10:33:24;;;;;;;27.83;24.85;;;;;;;;;;5025432;28;20060;-86
2023/04/26 10:35:59;;;;;;;5.60;5.05;;;;;;;;;;5014683;28;20108;-84
2023/04/26 10:38:27;;;;;;;87.85;79.43;;;;;;;;;;5004506;28;20069;-86
2023/04/26 10:40:55;;;;;;;9.80;3.38;;;;;;;;;;5023252;28;20050;-87
2023/04/26 10:43:29;;;;;;;4.22;2.40;;;;;;;;;;5031016;28;20045;-87
2023/04/26 10:45:56;;;;;;;5.63;4.15;;;;;;;;;;5002057;28;20045;-86
2023/04/26 10:48:27;;;;;;;176.23;159.02;;;;;;;;;;5026707;28;20136;-85
2023/04/26 10:51:00;;;;;;;5.95;2.67;;;;;;;;;;5021885;28;20046;-86
2023/04/26 10:53:30;;;;;;;3.85;1.85;;;;;;;;;;5025470;28;20049;-85
2023/04/26 10:55:58;;;;;;;4.00;2.63;;;;;;;;;;5009578;28;20069;-85
2023/04/26 10:58:32;;;;;;;2.33;1.90;;;;;;;;;;5029289;28;20033;-86
2023/04/26 11:01:10;;;;;;;5.15;4.68;;;;;;;;;;5020528;28;20077;-84
2023/04/26 11:03:38;;;;;;;5.53;5.00;;;;;;;;;;5027439;28;20045;-85
2023/04/26 11:06:07;;;;;;;4.13;3.10;;;;;;;;;;5031637;28;20122;-86
2023/04/26 11:08:35;;;;;;;4.78;1.90;;;;;;;;;;5029770;28;20091;-86
2023/04/26 11:11:03;;;;;;;6.20;2.10;;;;;;;;;;5029407;28;20045;-87
2023/04/26 11:13:41;;;;;;;14.38;13.13;;;;;;;;;;5030991;28;20065;-86
2023/04/26 11:16:09;;;;;;;4.63;3.45;;;;;;;;;;5031134;28;20461;-86
2023/04/26 11:18:38;;;;;;;3.47;1.83;;;;;;;;;;5031551;28;20092;-85
2023/04/26 11:21:06;;;;;;;29.52;26.65;;;;;;;;;;5031722;28;20137;-86
2023/04/26 11:23:34;;;;;;;3.47;1.90;;;;;;;;;;5030700;28;20083;-85
2023/04/26 11:26:03;;;;;;;3.05;2.00;;;;;;;;;;5031006;28;20523;-86
2023/04/26 11:28:34;;;;;;;4.50;2.53;;;;;;;;;;5023028;28;20049;-86
2023/04/26 11:31:05;;;;;;;246.30;221.55;;;;;;;;;;5022818;28;20049;-85
2023/04/26 11:33:33;;;;;;;15.05;13.38;;;;;;;;;;5018383;28;20050;-87
2023/04/26 11:36:00;;;;;;;54.03;48.53;;;;;;;;;;5024862;28;20054;-86
2023/04/26 11:38:28;;;;;;;7.28;5.93;;;;;;;;;;5019098;28;20781;-85
2023/04/26 11:40:56;;;;;;;18.50;15.32;;;;;;;;;;5012828;28;20050;-85
2023/04/26 11:43:34;;;;;;;3.13;1.90;;;;;;;;;;5022938;28;20523;-87
2023/04/26 11:46:03;;;;;;;4.90;2.30;;;;;;;;;;5019395;28;20049;-86
2023/04/26 11:48:32;;;;;;;3.58;2.42;;;;;;;;;;5027646;28;20422;-86
2023/04/26 11:51:02;;;;;;;8.73;2.40;;;;;;;;;;5030531;28;20103;-87
2023/04/26 11:53:37;;;;;;;5.05;4.63;;;;;;;;;;5031046;28;20079;-87
2023/04/26 11:56:05;;;;;;;4.05;3.72;;;;;;;;;;5024771;28;20491;-86
2023/04/26 11:58:32;;;;;;;30.35;19.00;;;;;;;;;;5029155;28;20088;-85
2023/04/26 12:01:00;;;;;;;4.95;2.42;;;;;;;;;;5027904;28;20075;-85
2023/04/26 12:03:36;;;;;;;3.63;2.30;;;;;;;;;;5017917;28;20946;-86
2023/04/26 12:06:05;;;;;;;2.28;1.50;;;;;;;;;;5019857;28;20095;-85
2023/04/26 12:08:32;;;;;;;7.85;6.70;;;;;;;;;;5012579;28;20292;-86
2023/04/26 12:11:01;;;;;;;8.65;5.68;;;;;;;;;;5029627;28;20076;-85
2023/04/26 12:13:29;;;;;;;19.42;17.85;;;;;;;;;;5023630;28;20054;-86
2023/04/26 12:15:57;;;;;;;4.45;2.45;;;;;;;;;;5025195;28;20049;-86
2023/04/26 12:18:33;;;;;;;26.33;23.67;;;;;;;;;;5006944;28;20038;-86
2023/04/26 12:21:01;;;;;;;6.57;2.78;;;;;;;;;;5024937;28;20042;-86
2023/04/26 12:23:35;;;;;;;2.35;2.15;;;;;;;;;;5024151;28;20080;-87
2023/04/26 12:26:03;;;;;;;4.00;1.90;;;;;;;;;;5019980;28;20049;-86
2023/04/26 12:28:31;;;;;;;8.85;5.63;;;;;;;;;;5024772;28;20056;-86
2023/04/26 12:31:00;;;;;;;3.65;1.70;;;;;;;;;;5027801;28;20049;-88
2023/04/26 12:33:27;;;;;;;3.67;2.30;;;;;;;;;;5021832;28;20131;-86
2023/04/26 12:35:56;;;;;;;3.53;2.22;;;;;;;;;;5024115;28;21613;-85
2023/04/26 12:38:23;;;;;;;2.78;1.88;;;;;;;;;;5025320;28;20144;-86
2023/04/26 12:40:51;;;;;;;38.25;22.40;;;;;;;;;;5021670;28;20049;-88
2023/04/26 12:43:22;;;;;;;7.68;2.35;;;;;;;;;;5010312;28;20037;-85
2023/04/26 12:45:52;;;;;;;;;;;;;;;;;;5019499;28;20092;-85
2023/04/26 12:48:20;;;;;;;4.38;2.45;;;;;;;;;;5025025;28;20482;-86
2023/04/26 12:50:50;;;;;;;209.23;190.82;;;;;;;;;;5028177;28;20049;-86
2023/04/26 12:53:21;;;;;;;117.72;106.68;;;;;;;;;;5020891;28;20522;-88
2023/04/26 12:55:49;;;;;;;5.53;2.97;;;;;;;;;;5029160;28;20046;-85
2023/04/26 12:58:17;;;;;;;3.58;2.08;;;;;;;;;;5038856;28;20095;-85
2023/04/26 13:00:45;;;;;;;2.17;1.40;;;;;;;;;;5040975;28;20110;-87
2023/04/26 13:03:13;;;;;;;7.05;2.47;;;;;;;;;;5049235;28;20066;-85
2023/04/26 13:05:41;;;;;;;5.63;2.20;;;;;;;;;;5036496;28;20053;-86
2023/04/26 13:08:08;;;;;;;34.80;26.88;;;;;;;;;;5032856;28;20029;-86
2023/04/26 13:10:43;;;;;;;5.35;4.93;;;;;;;;;;5032277;28;20037;-85
2023/04/26 13:13:13;;;;;;;18.90;16.92;;;;;;;;;;5046206;28;20026;-85
2023/04/26 13:15:41;;;;;;;8.40;6.47;;;;;;;;;;5046736;28;20045;-85
2023/04/26 13:18:08;;;;;;;2.15;1.60;;;;;;;;;;5038686;28;20053;-82
2023/04/26 13:20:37;;;;;;;2.38;1.73;;;;;;;;;;5040767;28;20112;-84
2023/04/26 13:23:04;;;;;;;11.13;10.07;;;;;;;;;;5042416;28;20044;-83
2023/04/26 13:25:31;;;;;;;4.72;2.53;;;;;;;;;;5038700;28;20495;-83
2023/04/26 13:27:59;;;;;;;13.77;12.50;;;;;;;;;;5047361;28;20043;-82
2023/04/26 13:30:26;;;;;;;4.85;2.90;;;;;;;;;;5048018;28;20033;-83
2023/04/26 13:32:53;;;;;;;3.30;1.83;;;;;;;;;;5049442;28;20075;-83
2023/04/26 13:35:26;;;;;;;5.43;4.90;;;;;;;;;;5048717;28;20045;-83
2023/04/26 13:37:54;;;;;;;7.03;3.25;;;;;;;;;;5038145;28;20156;-86
2023/04/26 13:40:21;;;;;;;4.60;2.40;;;;;;;;;;5049684;28;20112;-85
2023/04/26 13:42:49;;;;;;;18.17;16.63;;;;;;;;;;5051376;28;20030;-85
2023/04/26 13:45:17;;;;;;;13.98;12.20;;;;;;;;;;5049258;28;20036;-86
2023/04/26 13:47:46;;;;;;;26.60;22.42;;;;;;;;;;5049023;28;20056;-85
2023/04/26 13:50:13;;;;;;;5.97;4.53;;;;;;;;;;5040579;28;20093;-86
2023/04/26 13:52:41;;;;;;;6.47;5.25;;;;;;;;;;5042211;28;20104;-87
2023/04/26 13:55:08;;;;;;;3.17;2.13;;;;;;;;;;5036391;28;20045;-85
2023/04/26 13:57:36;;;;;;;3.80;1.88;;;;;;;;;;5035090;28;20060;-86
2023/04/26 14:00:03;;;;;;;3.15;1.85;;;;;;;;;;5033202;28;20467;-85
2023/04/26 14:02:37;;;;;;;11.15;9.98;;;;;;;;;;5030702;28;20037;-86
2023/04/26 14:05:06;;;;;;;3.58;2.63;;;;;;;;;;5029062;28;20050;-85
2023/04/26 14:07:34;;;;;;;26.20;23.58;;;;;;;;;;5036638;28;20053;-86
2023/04/26 14:10:01;;;;;;;2.13;1.63;;;;;;;;;;5017648;28;20053;-85
2023/04/26 14:12:29;;;;;;;3.58;1.85;;;;;;;;;;5035969;28;20045;-86
2023/04/26 14:14:56;;;;;;;4.63;2.00;;;;;;;;;;5035871;28;20555;-85
2023/04/26 14:17:24;;;;;;;5.85;5.05;;;;;;;;;;5016335;28;20056;-85
2023/04/26 14:19:52;;;;;;;5.18;4.78;;;;;;;;;;5031947;28;20037;-85
2023/04/26 14:22:21;;;;;;;3.47;3.17;;;;;;;;;;5029243;28;20045;-84
2023/04/26 14:24:48;;;;;;;29.58;19.52;;;;;;;;;;5030371;28;20144;-86
2023/04/26 14:27:15;;;;;;;3.15;2.60;;;;;;;;;;5013780;28;20045;-86
2023/04/26 14:29:43;;;;;;;133.75;120.72;;;;;;;;;;5011940;28;20045;-87
2023/04/26 14:32:10;;;;;;;4.50;2.67;;;;;;;;;;5030980;28;20042;-86
2023/04/26 14:34:38;;;;;;;6.63;4.28;;;;;;;;;;5028033;28;20116;-86
2023/04/26 14:37:06;;;;;;;3.63;2.42;;;;;;;;;;5028206;28;20041;-86
2023/04/26 14:39:34;;;;;;;3.75;2.00;;;;;;;;;;5027228;28;20067;-86
2023/04/26 14:42:02;;;;;;;7.38;2.90;;;;;;;;;;5017393;28;20049;-89
2023/04/26 14:44:32;;;;;;;2.80;1.58;;;;;;;;;;5026720;28;20049;-87
2023/04/26 14:47:00;;;;;;;5.85;4.07;;;;;;;;;;5026838;28;20061;-86
2023/04/26 14:49:27;;;;;;;3.03;1.45;;;;;;;;;;5027251;28;20046;-85